Main page
Satellite images 15-day forecastsClimateMarine weather Cyclones Lightning AirportsFAQ Newsletter About
Weather : Europe Africa North America South America Asia Australia-Oceania Others
Languages Contact

Milan, Italy

Malpensa

latitude: 45-37N, longitude: 008-44E, elevation: 234 m


METAR: LIMC 200720Z VRB02KT 9999 R35L/1500N R35R/0375V1500U MIFG NSC M01/M01 Q1022 NOSIG
TAF: LIMC 200500Z 2006/2112 36005KT 8000 NSC

Time: 08:58 (07:58 UTC)

Current weather observation

The report was made 38 minutes ago, at 07:20 UTC
Wind 2 kt from variable directions
Temperature -1°C
Humidity 100%
Pressure 1022 hPa
Visibility 10 km or more
Shallow fog

Change units

Forecast

The report was made 2 hours and 58 minutes ago, at 05:00 UTC
Forecast valid from 20 at 06 UTC to 21 at 12 UTC
Wind 5 kt from the North
Visibility: 8000 m
The information on this site is subject to a disclaimer
Weather : Europe Africa North America South America Asia Australia-Oceania Others
Satellite images 15-day forecastsClimateMarine weather Cyclones Lightning AirportsFAQ Languages Contact Newsletter About